Time;durP1;ratioP1;P1;durP2;ratioP2;P2;SDS_P1;SDS_P2;PMS_P1;PMS_P2;Temp;Humidity;BMP_temperature;BMP_pressure;BME280_temperature;BME280_humidity;BME280_pressure;Samples;Min_cycle;Max_cycle;Signal;HPM_P1;HPM_P2
2022/12/14 00:00:43;;;;;;;17.10;10.60;;;;;;;-2.90;77.78;100457.50;5052587;28;20028;-49
2022/12/14 00:03:08;;;;;;;16.67;9.68;;;;;;;-2.88;78.15;100447.06;5049381;28;20142;-51
2022/12/14 00:05:33;;;;;;;15.10;9.73;;;;;;;-2.89;78.16;100442.78;5051772;28;20038;-52
2022/12/14 00:07:59;;;;;;;17.00;10.73;;;;;;;-2.90;78.18;100435.84;5049979;28;20111;-51
2022/12/14 00:10:24;;;;;;;16.75;9.82;;;;;;;-2.89;77.81;100429.78;5052390;28;20040;-53
2022/12/14 00:12:49;;;;;;;16.13;9.18;;;;;;;-2.90;77.64;100431.50;5041106;28;20398;-52
2022/12/14 00:15:15;;;;;;;17.50;10.80;;;;;;;-2.90;77.56;100428.91;5051219;28;20459;-53
2022/12/14 00:17:40;;;;;;;14.90;9.50;;;;;;;-2.92;77.24;100427.25;5052194;28;20029;-53
2022/12/14 00:20:06;;;;;;;16.77;9.75;;;;;;;-2.93;77.40;100418.63;5052029;28;20033;-51
2022/12/14 00:22:32;;;;;;;15.90;9.70;;;;;;;-2.93;77.69;100425.53;5051991;28;20040;-51
2022/12/14 00:24:57;;;;;;;16.40;10.20;;;;;;;-2.93;77.19;100428.13;5052099;28;20021;-53
2022/12/14 00:27:22;;;;;;;16.90;10.52;;;;;;;-2.94;76.94;100423.84;5051796;28;20046;-50
2022/12/14 00:29:47;;;;;;;17.92;8.95;;;;;;;-2.93;76.97;100431.63;5061926;28;20017;-50
2022/12/14 00:32:13;;;;;;;13.95;9.10;;;;;;;-2.92;76.84;100432.47;5052310;28;20063;-49
2022/12/14 00:34:38;;;;;;;15.00;10.00;;;;;;;-2.92;76.89;100424.66;5050311;28;20040;-49
2022/12/14 00:37:03;;;;;;;15.27;10.07;;;;;;;-2.92;77.08;100425.50;5051985;28;20028;-50
2022/12/14 00:39:29;;;;;;;16.15;9.27;;;;;;;-2.92;76.53;100415.09;5051324;28;20025;-50
2022/12/14 00:41:54;;;;;;;18.10;9.77;;;;;;;-2.92;76.69;100414.25;5051957;28;20025;-50
2022/12/14 00:44:20;;;;;;;14.52;8.70;;;;;;;-2.92;76.45;100403.88;5051394;28;20040;-50
2022/12/14 00:46:45;;;;;;;17.05;8.82;;;;;;;-2.92;77.04;100402.13;5052148;28;20090;-50
2022/12/14 00:49:11;;;;;;;15.23;8.98;;;;;;;-2.94;76.34;100393.53;5051894;28;20475;-49
2022/12/14 00:51:36;;;;;;;14.13;9.05;;;;;;;-2.93;76.48;100384.84;5059762;28;20032;-49
2022/12/14 00:54:01;;;;;;;17.65;10.00;;;;;;;-2.95;76.48;100386.59;5051742;28;20403;-50
2022/12/14 00:56:26;;;;;;;14.13;8.82;;;;;;;-2.97;76.38;100378.84;5052202;28;20386;-49
2022/12/14 00:58:52;;;;;;;15.85;9.27;;;;;;;-2.98;76.26;100386.72;5051608;28;20025;-50
2022/12/14 01:01:18;;;;;;;16.58;9.43;;;;;;;-2.98;76.18;100381.53;5051371;28;20029;-49
2022/12/14 01:03:43;;;;;;;15.98;9.75;;;;;;;-3.01;75.83;100382.44;5038408;28;20356;-49
2022/12/14 01:06:14;;;;;;;14.45;9.15;;;;;;;-3.01;75.80;100386.81;5051475;28;20029;-51
2022/12/14 01:08:40;;;;;;;20.05;10.52;;;;;;;-3.05;75.89;100372.19;5046898;28;20108;-51
2022/12/14 01:11:07;;;;;;;16.45;9.40;;;;;;;-3.07;75.68;100369.63;5046890;28;20438;-51
2022/12/14 01:13:33;;;;;;;24.05;11.82;;;;;;;-3.08;76.36;100372.25;5049441;28;20336;-49
2022/12/14 01:16:07;;;;;;;16.55;9.68;;;;;;;-3.09;76.28;100370.56;5051540;28;20033;-49
2022/12/14 01:18:34;;;;;;;27.38;13.38;;;;;;;-3.11;76.30;100368.00;5050183;28;20056;-49
2022/12/14 01:21:29;;;;;;;14.48;9.02;;;;;;;-3.12;76.58;100368.91;5041007;28;20132;-49
2022/12/14 01:23:57;;;;;;;13.88;8.82;;;;;;;-3.15;76.53;100366.38;5047565;28;20037;-49
2022/12/14 01:26:23;;;;;;;16.90;9.40;;;;;;;-3.16;76.33;100368.13;5051203;28;20455;-51
2022/12/14 01:28:52;;;;;;;15.68;9.55;;;;;;;-3.14;76.34;100364.66;5048635;28;20037;-50
2022/12/14 01:31:21;;;;;;;15.85;9.65;;;;;;;-3.16;76.78;100362.09;5040014;28;20514;-50
2022/12/14 01:33:47;;;;;;;15.32;8.90;;;;;;;-3.16;76.66;100364.69;5033273;28;20022;-49
2022/12/14 01:36:18;;;;;;;14.02;8.38;;;;;;;-3.19;76.66;100355.22;5036228;28;20025;-49
2022/12/14 01:38:44;;;;;;;13.38;7.97;;;;;;;-3.19;77.05;100365.63;5050265;28;20083;-51
2022/12/14 01:41:22;;;;;;;14.90;8.70;;;;;;;-3.20;77.09;100357.88;5047216;28;20052;-49
2022/12/14 01:43:50;;;;;;;14.43;8.55;;;;;;;-3.23;76.65;100364.00;5044830;28;20480;-50
2022/12/14 01:46:35;;;;;;;14.98;9.13;;;;;;;-3.23;76.71;100365.75;5050156;28;20025;-50
2022/12/14 01:49:12;;;;;;;14.60;9.25;;;;;;;-3.27;76.54;100367.56;5041509;28;20029;-51
2022/12/14 01:51:40;;;;;;;14.32;8.63;;;;;;;-3.27;76.68;100367.56;5051323;28;20018;-50
2022/12/14 01:54:09;;;;;;;13.38;8.32;;;;;;;-3.28;76.67;100367.59;5046201;28;20483;-49
2022/12/14 01:56:40;;;;;;;13.75;9.13;;;;;;;-3.31;76.73;100360.78;5051644;28;20025;-49
2022/12/14 01:59:17;;;;;;;14.75;9.30;;;;;;;-3.33;76.82;100356.50;5050809;28;20053;-50
2022/12/14 02:01:42;;;;;;;16.55;8.77;;;;;;;-3.31;76.30;100357.31;5051210;28;20037;-49
2022/12/14 02:04:12;;;;;;;13.35;8.63;;;;;;;-3.35;76.65;100346.16;5050609;28;20025;-49
2022/12/14 02:06:39;;;;;;;15.15;8.30;;;;;;;-3.35;76.66;100348.75;5050572;28;20037;-50
2022/12/14 02:09:09;;;;;;;15.27;8.80;;;;;;;-3.36;76.28;100340.13;5054104;28;20036;-52
2022/12/14 02:11:51;;;;;;;15.23;9.13;;;;;;;-3.36;76.47;100336.69;5050036;28;20025;-53
2022/12/14 02:14:16;;;;;;;14.77;9.10;;;;;;;-3.39;76.46;100342.78;5050849;28;20053;-50
2022/12/14 02:16:42;;;;;;;15.57;9.25;;;;;;;-3.39;76.76;100332.41;5050995;28;20031;-49
2022/12/14 02:19:07;;;;;;;15.93;8.82;;;;;;;-3.42;77.26;100329.88;5050847;28;20025;-50
2022/12/14 02:22:00;;;;;;;15.10;8.35;;;;;;;-3.39;76.71;100334.16;5050092;28;20033;-51
2022/12/14 02:24:59;;;;;;;15.65;8.88;;;;;;;-3.40;76.91;100329.84;5050892;28;20067;-52
2022/12/14 02:28:01;;;;;;;16.63;8.82;;;;;;;-3.40;76.88;100340.22;5046524;28;20493;-50
2022/12/14 02:30:33;;;;;;;15.05;9.38;;;;;;;-3.40;76.75;100327.25;5054642;28;20035;-50
2022/12/14 02:33:11;;;;;;;13.10;8.77;;;;;;;-3.41;77.03;100323.81;5047116;28;20021;-50
2022/12/14 02:36:01;;;;;;;17.25;8.95;;;;;;;-3.40;77.26;100327.25;5050516;28;20500;-50
2022/12/14 02:38:43;;;;;;;13.70;8.90;;;;;;;-3.41;77.25;100325.56;5054196;28;20093;-49
2022/12/14 02:41:17;;;;;;;16.00;9.13;;;;;;;-3.42;76.92;100316.06;5040395;28;20478;-49
2022/12/14 02:43:56;;;;;;;16.85;9.73;;;;;;;-3.44;77.20;100325.66;5053579;28;20025;-49
2022/12/14 02:46:37;;;;;;;14.73;8.63;;;;;;;-3.47;77.25;100323.97;5054205;28;20039;-50
2022/12/14 02:49:10;;;;;;;13.02;7.85;;;;;;;-3.48;76.84;100319.69;5053996;28;20414;-50
2022/12/14 02:51:47;;;;;;;15.27;8.38;;;;;;;-3.48;77.25;100318.81;5053451;28;20029;-51
2022/12/14 02:54:29;;;;;;;14.35;8.98;;;;;;;-3.48;76.92;100318.81;5044694;28;20033;-50
2022/12/14 02:57:12;;;;;;;17.17;9.13;;;;;;;-3.49;77.35;100312.78;5053903;28;20490;-51
2022/12/14 02:59:38;;;;;;;15.20;8.65;;;;;;;-3.49;77.04;100317.13;5039638;28;20112;-52
2022/12/14 03:02:04;;;;;;;11.82;7.85;;;;;;;-3.50;77.38;100321.44;5053608;28;20409;-52
2022/12/14 03:04:30;;;;;;;15.52;8.60;;;;;;;-3.49;77.30;100325.75;5052176;28;20099;-53
2022/12/14 03:07:01;;;;;;;12.43;7.85;;;;;;;-3.49;76.89;100320.56;5052690;28;20060;-54
2022/12/14 03:09:30;;;;;;;15.15;8.80;;;;;;;-3.50;77.54;100316.25;5053678;28;20437;-50
2022/12/14 03:12:08;;;;;;;12.82;8.00;;;;;;;-3.48;77.68;100318.81;5053780;28;20029;-51
2022/12/14 03:14:41;;;;;;;13.48;8.18;;;;;;;-3.49;77.20;100322.31;5052428;28;20045;-50
2022/12/14 03:17:13;;;;;;;12.73;8.50;;;;;;;-3.49;77.10;100309.34;5053268;28;20025;-51
2022/12/14 03:19:45;;;;;;;13.65;7.88;;;;;;;-3.50;77.13;100308.47;5048860;28;20032;-51
2022/12/14 03:22:17;;;;;;;13.32;7.95;;;;;;;-3.47;76.61;100307.56;5053724;28;20060;-50
2022/12/14 03:24:48;;;;;;;15.50;8.77;;;;;;;-3.47;76.90;100297.16;5052711;28;20048;-49
2022/12/14 03:27:20;;;;;;;13.30;8.40;;;;;;;-3.46;76.84;100298.88;5053601;28;20507;-51
2022/12/14 03:29:54;;;;;;;12.52;7.78;;;;;;;-3.46;77.29;100288.50;5052532;28;20020;-50
2022/12/14 03:32:22;;;;;;;12.50;8.02;;;;;;;-3.47;77.26;100282.44;5048195;28;20033;-49
2022/12/14 03:34:54;;;;;;;15.18;8.40;;;;;;;-3.47;77.36;100272.03;5053067;28;20308;-51
2022/12/14 03:37:46;;;;;;;11.70;7.72;;;;;;;-3.44;77.91;100273.72;5052177;28;20115;-50
2022/12/14 03:40:13;;;;;;;15.18;8.60;;;;;;;-3.47;77.50;100266.00;5051779;28;20482;-49
2022/12/14 03:42:54;;;;;;;15.80;8.82;;;;;;;-3.47;78.04;100266.84;5052904;28;20028;-50
2022/12/14 03:45:25;;;;;;;12.57;8.60;;;;;;;-3.47;77.94;100271.22;5053105;28;20040;-51
2022/12/14 03:48:00;;;;;;;14.65;8.50;;;;;;;-3.47;77.47;100274.63;5051995;28;20112;-49
2022/12/14 03:50:40;;;;;;;18.75;9.50;;;;;;;-3.46;77.58;100286.75;5052223;28;20402;-51
2022/12/14 03:53:18;;;;;;;17.58;8.68;;;;;;;-3.46;77.85;100270.31;5053092;28;20470;-52
2022/12/14 03:56:07;;;;;;;14.32;8.52;;;;;;;-3.47;77.46;100269.44;5051678;28;20029;-51
2022/12/14 03:58:41;;;;;;;11.88;7.90;;;;;;;-3.47;77.69;100260.81;5051979;28;20025;-50
2022/12/14 04:01:27;;;;;;;15.57;8.32;;;;;;;-3.48;77.43;100266.91;5051119;28;20039;-49
2022/12/14 04:04:02;;;;;;;13.55;8.23;;;;;;;-3.50;77.57;100256.56;5051233;28;20060;-51
2022/12/14 04:06:56;;;;;;;12.65;8.18;;;;;;;-3.46;78.04;100254.75;5052688;28;20493;-51
2022/12/14 04:09:42;;;;;;;14.57;8.27;;;;;;;-3.46;77.53;100254.75;5044478;28;20123;-49
2022/12/14 04:21:10;;;;;;;15.13;8.73;;;;;;;-3.46;77.51;100231.38;5052836;28;20039;-52
2022/12/14 04:26:38;;;;;;;;;;;;;;;-3.43;78.79;100226.94;5045818;28;20091;-52
2022/12/14 04:32:07;;;;;;;13.68;8.23;;;;;;;-3.46;77.25;100228.78;5052401;28;20402;-50
2022/12/14 04:34:34;;;;;;;15.27;8.95;;;;;;;-3.48;77.39;100226.22;5051680;28;20475;-49
2022/12/14 04:37:05;;;;;;;14.23;8.60;;;;;;;-3.47;77.16;100227.06;5051601;28;20041;-51
2022/12/14 04:39:42;;;;;;;12.90;8.55;;;;;;;-3.47;77.49;100211.50;5051700;28;20017;-50
2022/12/14 04:42:10;;;;;;;15.52;8.05;;;;;;;-3.50;77.47;100209.81;5048096;28;20037;-51
2022/12/14 04:44:40;;;;;;;15.57;8.73;;;;;;;-3.51;77.96;100212.47;5050980;28;20025;-49
2022/12/14 04:47:09;;;;;;;13.35;8.32;;;;;;;-3.50;77.69;100212.41;5050959;28;20037;-50
2022/12/14 04:49:58;;;;;;;13.75;8.73;;;;;;;-3.48;78.00;100214.97;5051919;28;20040;-49
2022/12/14 04:52:31;;;;;;;14.90;8.10;;;;;;;-3.47;78.20;100214.09;5051486;28;20076;-51
2022/12/14 04:55:09;;;;;;;11.85;8.15;;;;;;;-3.48;78.54;100209.78;5051999;28;20112;-52
2022/12/14 04:58:00;;;;;;;15.23;9.07;;;;;;;-3.48;78.48;100200.28;5052037;28;20029;-50
2022/12/14 05:00:28;;;;;;;16.60;9.07;;;;;;;-3.48;78.73;100202.00;5052025;28;20036;-51
2022/12/14 05:03:18;;;;;;;14.68;9.27;;;;;;;-3.47;78.96;100206.31;5051897;28;20062;-49
2022/12/14 05:05:55;;;;;;;14.63;9.35;;;;;;;-3.49;79.11;100208.94;5045895;28;20036;-50
2022/12/14 05:08:41;;;;;;;13.75;9.07;;;;;;;-3.48;78.49;100210.66;5050541;28;20036;-51
2022/12/14 05:11:18;;;;;;;14.80;8.77;;;;;;;-3.49;79.15;100211.53;5044138;28;20025;-49
2022/12/14 05:13:48;;;;;;;14.07;8.68;;;;;;;-3.47;79.30;100206.31;5044803;28;20044;-49
2022/12/14 05:16:19;;;;;;;17.95;9.50;;;;;;;-3.48;79.44;100199.41;5051388;28;20025;-50
2022/12/14 05:18:44;;;;;;;15.88;8.80;;;;;;;-3.48;79.10;100200.28;5050742;28;20029;-50
2022/12/14 05:21:45;;;;;;;17.52;10.07;;;;;;;-3.47;79.08;100193.31;5049071;28;20017;-49
2022/12/14 05:23:58;;;;;;;15.63;8.57;;;;;;;-3.48;79.36;100189.00;5049071;28;20040;-50
2022/12/14 05:26:24;;;;;;;11.95;8.30;;;;;;;-3.47;79.23;100185.53;5050606;28;20158;-50
2022/12/14 05:28:49;;;;;;;17.83;8.82;;;;;;;-3.47;79.17;100190.72;5051498;28;20037;-50
2022/12/14 05:31:15;;;;;;;17.27;9.23;;;;;;;-3.48;79.50;100186.41;5051126;28;20041;-50
2022/12/14 05:33:40;;;;;;;14.32;8.95;;;;;;;-3.48;79.27;100181.22;5051678;28;20029;-53
2022/12/14 05:36:06;;;;;;;14.40;8.52;;;;;;;-3.49;79.73;100182.97;5051528;28;20032;-49
2022/12/14 05:38:31;;;;;;;14.48;8.88;;;;;;;-3.48;80.07;100183.81;5050994;28;20115;-53
2022/12/14 05:40:56;;;;;;;15.05;8.65;;;;;;;-3.48;79.66;100178.63;5044434;28;20104;-53
2022/12/14 05:43:22;;;;;;;13.25;8.90;;;;;;;-3.49;79.68;100182.97;5051471;28;20021;-54
2022/12/14 05:45:47;;;;;;;14.35;8.40;;;;;;;-3.50;79.83;100183.88;5050421;28;20154;-51
2022/12/14 05:48:12;;;;;;;12.52;8.55;;;;;;;-3.50;80.32;100186.47;5051281;28;20029;-53
2022/12/14 05:50:38;;;;;;;19.17;10.80;;;;;;;-3.49;80.31;100182.97;5050818;28;20057;-49
2022/12/14 05:53:03;;;;;;;17.80;9.98;;;;;;;-3.49;80.23;100184.72;5051328;28;20021;-53
2022/12/14 05:55:28;;;;;;;15.95;9.50;;;;;;;-3.48;80.32;100183.81;5050940;28;20367;-52
2022/12/14 05:57:54;;;;;;;16.05;8.93;;;;;;;-3.50;80.32;100183.03;5049951;28;20078;-49
2022/12/14 06:00:20;;;;;;;15.77;9.95;;;;;;;-3.50;80.68;100180.44;5050418;28;20071;-52
2022/12/14 06:02:45;;;;;;;15.00;9.50;;;;;;;-3.49;80.96;100182.13;5052835;28;20467;-51
2022/12/14 06:05:11;;;;;;;13.73;8.80;;;;;;;-3.51;80.53;100182.19;5053697;28;20063;-51
2022/12/14 06:07:36;;;;;;;19.60;9.63;;;;;;;-3.51;80.96;100173.53;5053619;28;20037;-49
2022/12/14 06:10:02;;;;;;;17.10;9.82;;;;;;;-3.53;80.50;100177.03;5053390;28;20036;-50
2022/12/14 06:12:27;;;;;;;16.67;9.82;;;;;;;-3.51;80.88;100178.72;5053113;28;20101;-51
2022/12/14 06:14:53;;;;;;;19.05;10.27;;;;;;;-3.52;80.15;100170.09;5053283;28;20136;-53
2022/12/14 06:17:18;;;;;;;17.23;10.45;;;;;;;-3.52;80.65;100167.50;5054061;28;20017;-50
2022/12/14 06:19:43;;;;;;;19.08;9.73;;;;;;;-3.51;80.48;100160.53;5052270;28;20021;-52
2022/12/14 06:22:08;;;;;;;17.75;9.05;;;;;;;-3.52;80.49;100164.91;5055049;28;20021;-50
2022/12/14 06:24:34;;;;;;;16.45;9.52;;;;;;;-3.54;80.58;100172.72;5053754;28;20028;-51
2022/12/14 06:26:59;;;;;;;17.48;10.07;;;;;;;-3.53;80.91;100169.25;5054747;28;20025;-50
2022/12/14 06:29:25;;;;;;;16.55;9.80;;;;;;;-3.54;80.72;100175.31;5053509;28;20079;-50
2022/12/14 06:31:50;;;;;;;15.68;9.80;;;;;;;-3.54;81.32;100174.47;5054487;28;20059;-52
2022/12/14 06:34:16;;;;;;;17.42;10.00;;;;;;;-3.54;80.92;100170.13;5053465;28;20021;-52
2022/12/14 06:36:42;;;;;;;14.35;9.48;;;;;;;-3.52;81.62;100172.69;5054368;28;20017;-50
2022/12/14 06:39:11;;;;;;;18.58;9.95;;;;;;;-3.52;81.51;100164.91;5050559;28;20025;-50
2022/12/14 06:41:36;;;;;;;15.00;9.55;;;;;;;-3.51;81.74;100169.19;5045027;28;20029;-51
2022/12/14 06:44:07;;;;;;;14.85;9.20;;;;;;;-3.50;81.47;100176.06;5053659;28;20021;-50
2022/12/14 06:46:34;;;;;;;15.70;9.57;;;;;;;-3.50;81.47;100175.22;5053785;28;20037;-50
2022/12/14 06:49:00;;;;;;;12.88;8.95;;;;;;;-3.50;81.70;100176.06;5053531;28;20056;-50
2022/12/14 06:51:25;;;;;;;15.57;9.23;;;;;;;-3.49;82.01;100184.72;5053192;28;20513;-49
2022/12/14 06:53:52;;;;;;;16.13;9.27;;;;;;;-3.50;81.76;100181.25;5052937;28;20449;-51
2022/12/14 06:56:19;;;;;;;15.25;9.63;;;;;;;-3.49;82.25;100180.38;5054369;28;20028;-49
2022/12/14 06:58:44;;;;;;;18.00;11.02;;;;;;;-3.49;82.35;100179.53;5053784;28;20481;-49
2022/12/14 07:01:13;;;;;;;17.65;10.57;;;;;;;-3.50;82.41;100189.06;5053916;28;20017;-50
2022/12/14 07:03:39;;;;;;;16.65;9.90;;;;;;;-3.50;82.57;100175.22;5052741;28;20379;-49
2022/12/14 07:06:05;;;;;;;16.45;10.13;;;;;;;-3.49;81.95;100179.53;5052809;28;20028;-50
2022/12/14 07:08:32;;;;;;;14.55;8.68;;;;;;;-3.50;82.30;100180.44;5053211;28;20044;-49
2022/12/14 07:11:01;;;;;;;20.23;10.20;;;;;;;-3.50;81.81;100188.22;5041245;28;20044;-48
2022/12/14 07:13:26;;;;;;;15.25;10.43;;;;;;;-3.51;82.02;100184.78;5032953;28;20092;-48
2022/12/14 07:15:54;;;;;;;18.83;10.73;;;;;;;-3.50;81.64;100188.22;5052430;28;20483;-50
2022/12/14 07:18:19;;;;;;;15.20;10.50;;;;;;;-3.53;81.91;100182.22;5053486;28;20110;-49
2022/12/14 07:21:05;;;;;;;14.75;10.13;;;;;;;-3.49;81.99;100182.97;5053047;28;20118;-48
2022/12/14 07:23:32;;;;;;;19.40;10.40;;;;;;;-3.53;82.01;100187.41;5053169;28;20052;-49
2022/12/14 07:26:06;;;;;;;16.60;10.98;;;;;;;-3.52;82.67;100185.66;5045504;28;20053;-49
2022/12/14 07:28:32;;;;;;;16.95;9.85;;;;;;;-3.54;82.52;100190.06;5049658;28;20033;-49
2022/12/14 07:30:59;;;;;;;16.13;10.35;;;;;;;-3.55;82.37;100185.75;5045809;28;20040;-49
2022/12/14 07:33:25;;;;;;;17.88;10.45;;;;;;;-3.56;82.30;100191.84;5049421;28;20052;-49
2022/12/14 07:35:51;;;;;;;18.83;10.32;;;;;;;-3.59;82.42;100192.78;5047745;28;20037;-48
2022/12/14 07:38:17;;;;;;;20.83;11.48;;;;;;;-3.61;82.52;100197.16;5046058;28;20052;-51
2022/12/14 07:40:43;;;;;;;19.77;10.73;;;;;;;-3.64;82.00;100194.66;5046964;28;20666;-49
2022/12/14 07:43:09;;;;;;;15.48;9.63;;;;;;;-3.64;82.55;100194.66;5044473;28;20048;-48
2022/12/14 07:45:34;;;;;;;22.40;10.75;;;;;;;-3.65;82.49;100192.09;5047777;28;20029;-48
2022/12/14 07:48:00;;;;;;;17.75;9.35;;;;;;;-3.66;81.78;100199.03;5044774;28;20454;-48
2022/12/14 07:50:25;;;;;;;18.63;10.73;;;;;;;-3.68;82.14;100194.78;5045106;28;20136;-49
2022/12/14 07:52:50;;;;;;;21.90;10.05;;;;;;;-3.71;82.25;100195.72;5043917;28;20064;-49
2022/12/14 07:55:16;;;;;;;19.38;10.13;;;;;;;-3.73;82.42;100192.31;5046017;28;20051;-49
2022/12/14 07:57:41;;;;;;;20.65;10.75;;;;;;;-3.73;82.18;100192.31;5043669;28;20119;-50
2022/12/14 08:00:07;;;;;;;19.67;11.52;;;;;;;-3.77;82.14;100190.69;5042599;28;20029;-49
2022/12/14 08:02:32;;;;;;;20.50;11.48;;;;;;;-3.78;82.72;100197.66;5043879;28;20037;-52
2022/12/14 08:04:57;;;;;;;17.55;12.43;;;;;;;-3.77;82.62;100198.50;5044065;28;20082;-48
2022/12/14 08:07:23;;;;;;;23.45;12.57;;;;;;;-3.78;82.41;100204.56;5045615;28;20045;-49
2022/12/14 08:09:48;;;;;;;23.00;11.30;;;;;;;-3.79;82.66;100203.72;5042892;28;20020;-50
2022/12/14 08:12:13;;;;;;;15.88;9.93;;;;;;;-3.79;82.29;100205.47;5042752;28;20483;-48
2022/12/14 08:14:38;;;;;;;18.80;10.32;;;;;;;-3.80;82.84;100202.00;5043240;28;20049;-51
2022/12/14 08:17:04;;;;;;;17.95;10.15;;;;;;;-3.79;82.98;100202.88;5044958;28;20401;-49
2022/12/14 08:19:29;;;;;;;21.27;10.88;;;;;;;-3.81;82.90;100204.66;5044780;28;20380;-52
2022/12/14 08:21:54;;;;;;;18.13;10.60;;;;;;;-3.81;83.08;100212.47;5045559;28;20124;-48
2022/12/14 08:24:20;;;;;;;17.77;10.52;;;;;;;-3.81;82.88;100209.88;5044813;28;20139;-50
2022/12/14 08:26:46;;;;;;;16.90;10.18;;;;;;;-3.83;83.40;100217.69;5042259;28;22389;-49
2022/12/14 08:29:13;;;;;;;16.45;9.98;;;;;;;-3.82;83.08;100215.94;5045139;28;20029;-48
2022/12/14 08:31:39;;;;;;;19.50;9.98;;;;;;;-3.83;83.49;100216.81;5042206;28;20497;-49
2022/12/14 08:34:04;;;;;;;19.98;10.52;;;;;;;-3.85;83.14;100216.00;5045527;28;20073;-50
2022/12/14 08:36:32;;;;;;;18.35;10.32;;;;;;;-3.88;83.01;100210.91;5043985;28;20376;-48
2022/12/14 08:39:04;;;;;;;19.02;10.13;;;;;;;-3.88;83.32;100222.16;5045230;28;20037;-49
2022/12/14 08:41:30;;;;;;;18.17;10.40;;;;;;;-3.90;83.10;100218.72;5046949;28;20394;-52
2022/12/14 08:43:58;;;;;;;19.00;9.88;;;;;;;-3.91;83.18;100224.81;5046803;28;20447;-49
2022/12/14 08:46:25;;;;;;;17.55;10.32;;;;;;;-3.94;82.91;100225.75;5048061;28;20039;-48
2022/12/14 08:48:52;;;;;;;21.35;10.52;;;;;;;-3.95;83.05;100226.66;5048009;28;20045;-52
2022/12/14 08:51:18;;;;;;;16.58;10.48;;;;;;;-3.97;83.16;100228.41;5048448;28;20359;-49
2022/12/14 08:53:46;;;;;;;18.75;10.55;;;;;;;-3.99;83.45;100225.00;5047499;28;20041;-51
2022/12/14 08:56:14;;;;;;;20.67;10.07;;;;;;;-4.00;83.46;100220.72;5033729;28;20352;-48
2022/12/14 08:58:40;;;;;;;18.00;10.55;;;;;;;-4.02;82.97;100224.25;5044410;28;20040;-48
2022/12/14 09:01:12;;;;;;;17.33;10.43;;;;;;;-4.03;83.82;100218.22;5041707;28;20399;-49
2022/12/14 09:03:37;;;;;;;21.20;9.85;;;;;;;-4.03;83.33;100219.94;5046820;28;20028;-49
2022/12/14 09:06:04;;;;;;;17.80;9.63;;;;;;;-4.01;83.71;100221.63;5053511;28;20032;-50
2022/12/14 09:08:31;;;;;;;18.30;10.82;;;;;;;-4.01;83.97;100226.81;5046138;28;20823;-49
2022/12/14 09:10:57;;;;;;;15.45;10.02;;;;;;;-3.99;83.94;100222.44;5042787;28;20025;-49
2022/12/14 09:13:22;;;;;;;19.77;11.23;;;;;;;-3.94;84.00;100224.91;5037477;28;20364;-49
2022/12/14 09:16:12;;;;;;;20.38;10.63;;;;;;;-3.86;84.02;100229.88;5026176;28;20032;-49
2022/12/14 09:18:38;;;;;;;19.90;10.98;;;;;;;-3.82;83.84;100231.50;5049333;28;20029;-49
2022/12/14 09:21:03;;;;;;;19.42;10.43;;;;;;;-3.77;84.03;100235.66;5037820;28;20104;-48
2022/12/14 09:23:30;;;;;;;18.20;10.77;;;;;;;-3.69;83.66;100242.41;5048471;28;20033;-53
2022/12/14 09:26:03;;;;;;;22.23;10.40;;;;;;;-3.61;83.38;100235.25;5050635;28;20025;-49
2022/12/14 09:28:30;;;;;;;16.48;10.50;;;;;;;-3.56;83.23;100242.00;5050164;28;20040;-49
2022/12/14 09:30:58;;;;;;;19.48;10.77;;;;;;;-3.53;82.60;100247.13;5050257;28;21057;-52
2022/12/14 09:33:25;;;;;;;18.95;10.65;;;;;;;-3.49;82.50;100249.63;5050639;28;20025;-49
2022/12/14 09:35:50;;;;;;;18.42;11.13;;;;;;;-3.46;82.52;100244.34;5050182;28;20036;-50
2022/12/14 09:38:15;;;;;;;17.98;10.70;;;;;;;-3.40;82.79;100241.56;5054886;28;20017;-49
2022/12/14 09:40:47;;;;;;;18.17;10.98;;;;;;;-3.36;81.84;100245.78;5051127;28;20111;-48
2022/12/14 09:43:42;;;;;;;17.90;11.00;;;;;;;-3.26;81.92;100246.38;5056993;28;20541;-49
2022/12/14 09:46:33;;;;;;;16.60;9.82;;;;;;;-3.20;81.84;100241.84;5048494;28;20036;-48
2022/12/14 09:49:00;;;;;;;16.65;9.80;;;;;;;-3.12;80.84;100233.81;5054144;28;20471;-49
2022/12/14 09:51:33;;;;;;;20.10;10.38;;;;;;;-3.03;80.99;100227.50;5052920;28;20021;-48
2022/12/14 09:54:06;;;;;;;16.52;9.95;;;;;;;-2.95;80.09;100237.66;5054719;28;20029;-49
2022/12/14 09:56:32;;;;;;;18.90;9.60;;;;;;;-2.84;80.84;100239.03;5054593;28;20467;-49
2022/12/14 09:58:59;;;;;;;19.48;9.63;;;;;;;-2.73;79.45;100245.63;5042802;28;20025;-49
2022/12/14 10:01:55;;;;;;;15.25;9.63;;;;;;;-2.65;79.46;100248.84;5038860;28;20037;-51
2022/12/14 10:04:30;;;;;;;19.52;9.70;;;;;;;-2.55;79.32;100249.41;5065390;28;20028;-51
2022/12/14 10:07:09;;;;;;;14.32;8.93;;;;;;;-2.47;78.09;100253.44;5049714;28;20095;-49
2022/12/14 10:09:53;;;;;;;15.25;9.43;;;;;;;-2.40;78.42;100253.25;5053187;28;20021;-50
2022/12/14 10:12:28;;;;;;;16.55;9.90;;;;;;;-2.31;78.92;100242.56;5053333;28;20444;-49
2022/12/14 10:15:16;;;;;;;48.00;26.80;;;;;;;-2.25;77.23;100229.34;5046107;28;20448;-49
2022/12/14 10:17:51;;;;;;;18.95;10.70;;;;;;;-2.15;77.16;100235.09;5042704;28;20041;-52
2022/12/14 10:20:26;;;;;;;19.67;10.82;;;;;;;-2.08;76.78;100231.41;5039717;28;20072;-51
2022/12/14 10:22:52;;;;;;;16.25;9.73;;;;;;;-2.01;76.42;100222.47;5051952;28;20488;-49
2022/12/14 10:25:23;;;;;;;15.93;9.40;;;;;;;-1.92;76.28;100234.31;5041502;28;20104;-50
2022/12/14 10:27:56;;;;;;;18.33;9.65;;;;;;;-1.81;76.79;100232.19;5038867;28;20025;-51
2022/12/14 10:30:21;;;;;;;16.45;9.13;;;;;;;-1.76;75.66;100235.47;5035831;28;20068;-51
2022/12/14 10:32:56;;;;;;;15.48;9.00;;;;;;;-1.69;75.94;100242.16;5048471;28;20103;-51
2022/12/14 10:35:53;;;;;;;13.73;8.35;;;;;;;-1.59;76.01;100232.25;5045007;28;20509;-50
2022/12/14 10:38:30;;;;;;;15.90;9.32;;;;;;;-1.52;74.87;100238.94;5044800;28;20508;-50
2022/12/14 10:41:24;;;;;;;15.27;8.90;;;;;;;-1.38;75.84;100242.78;5038463;28;20032;-51
2022/12/14 10:43:57;;;;;;;14.77;8.57;;;;;;;-1.31;74.90;100241.66;5049377;28;20029;-49
2022/12/14 10:46:36;;;;;;;18.85;9.15;;;;;;;-1.22;74.62;100241.31;5045868;28;20028;-50
2022/12/14 10:49:22;;;;;;;;;;;;;;;-1.11;77.79;100246.13;5046807;28;20025;-51
2022/12/14 10:52:01;;;;;;;14.43;8.65;;;;;;;-0.99;74.23;100247.41;5047152;28;19924;-50
2022/12/14 10:54:34;;;;;;;12.60;8.70;;;;;;;-0.90;74.03;100244.44;5053926;28;20083;-51
2022/12/14 10:56:59;;;;;;;13.13;8.48;;;;;;;-0.81;74.61;100240.66;5050445;28;20029;-49
2022/12/14 10:59:32;;;;;;;14.77;8.50;;;;;;;-0.73;72.99;100233.38;5052629;28;20025;-49
2022/12/14 11:02:19;;;;;;;13.65;8.05;;;;;;;-0.66;72.55;100234.81;5053008;28;20556;-49
2022/12/14 11:04:48;;;;;;;14.50;8.15;;;;;;;-0.58;72.19;100237.13;5029973;28;20033;-50
2022/12/14 11:07:17;;;;;;;12.35;8.23;;;;;;;-0.52;72.82;100238.63;5047500;28;20466;-50
2022/12/14 11:09:43;;;;;;;14.27;8.70;;;;;;;-0.47;71.43;100234.91;5043366;28;20033;-52
2022/12/14 11:12:23;;;;;;;13.80;8.70;;;;;;;-0.40;72.27;100241.59;5050012;28;20086;-52
2022/12/14 11:14:56;;;;;;;14.20;8.27;;;;;;;-0.29;70.69;100242.91;5041421;28;20477;-49
2022/12/14 11:17:34;;;;;;;13.32;8.70;;;;;;;-0.22;71.10;100242.59;5052664;28;20017;-50
2022/12/14 11:20:14;;;;;;;15.55;8.52;;;;;;;-0.10;71.12;100230.81;5049762;28;20074;-50
2022/12/14 11:22:53;;;;;;;15.10;8.05;;;;;;;-0.02;71.35;100233.94;5043653;28;20458;-48
2022/12/14 11:25:38;;;;;;;15.27;9.67;;;;;;;0.02;70.75;100239.88;5042937;28;20415;-48
2022/12/14 11:28:38;;;;;;;14.85;8.98;;;;;;;0.01;70.62;100239.94;5041439;28;20102;-49
2022/12/14 11:31:05;;;;;;;13.52;8.40;;;;;;;0.04;69.80;100239.81;5044723;28;20115;-49
2022/12/14 11:33:38;;;;;;;13.43;8.60;;;;;;;0.08;70.37;100236.13;5048380;28;20032;-49
2022/12/14 11:36:04;;;;;;;13.68;9.25;;;;;;;0.18;69.70;100240.03;5047989;28;20427;-52
2022/12/14 11:38:31;;;;;;;14.88;8.60;;;;;;;0.21;68.79;100244.31;5046654;28;20025;-51
2022/12/14 11:40:59;;;;;;;12.50;8.23;;;;;;;0.28;68.27;100235.28;5037030;28;20033;-52
2022/12/14 11:43:33;;;;;;;14.80;9.10;;;;;;;0.30;68.33;100239.53;5051378;28;20383;-50
2022/12/14 11:45:59;;;;;;;16.02;9.10;;;;;;;0.30;69.00;100234.31;5048742;28;20122;-52
2022/12/14 11:48:27;;;;;;;15.23;9.50;;;;;;;0.30;67.67;100234.31;5037409;28;20331;-50